Time;durP1;ratioP1;P1;durP2;ratioP2;P2;SDS_P1;SDS_P2;PMS_P1;PMS_P2;Temp;Humidity;BMP_temperature;BMP_pressure;BME280_temperature;BME280_humidity;BME280_pressure;Samples;Min_cycle;Max_cycle;Signal;HPM_P1;HPM_P2
2023/07/17 00:02:18;;;;;;;2.17;1.48;;;;;;;;;;5049927;28;20385;-88
2023/07/17 00:04:44;;;;;;;1.88;1.55;;;;;;;;;;5042880;28;20378;-90
2023/07/17 00:07:10;;;;;;;3.20;1.40;;;;;;;;;;5047317;28;20891;-89
2023/07/17 00:09:36;;;;;;;2.20;1.50;;;;;;;;;;5053583;28;20447;-89
2023/07/17 00:12:03;;;;;;;2.50;1.20;;;;;;;;;;5055967;28;20426;-89
2023/07/17 00:14:29;;;;;;;3.00;1.53;;;;;;;;;;5052952;28;20381;-90
2023/07/17 00:16:55;;;;;;;3.92;1.38;;;;;;;;;;5052452;28;20405;-90
2023/07/17 00:19:21;;;;;;;3.08;1.40;;;;;;;;;;5052892;28;20854;-90
2023/07/17 00:21:47;;;;;;;1.50;1.40;;;;;;;;;;5053080;28;20385;-88
2023/07/17 00:24:13;;;;;;;3.47;1.52;;;;;;;;;;5052577;28;20400;-90
2023/07/17 00:26:39;;;;;;;2.67;1.80;;;;;;;;;;5055216;28;20388;-90
2023/07/17 00:29:24;;;;;;;1.88;1.45;;;;;;;;;;5053349;28;20385;-89
2023/07/17 00:31:51;;;;;;;2.38;1.55;;;;;;;;;;5052888;28;20378;-89
2023/07/17 00:34:18;;;;;;;2.42;1.67;;;;;;;;;;5053145;28;20380;-90
2023/07/17 00:36:44;;;;;;;2.37;1.80;;;;;;;;;;5051456;28;20406;-89
2023/07/17 00:39:10;;;;;;;2.70;1.60;;;;;;;;;;5040770;28;20377;-89
2023/07/17 00:41:36;;;;;;;2.17;1.65;;;;;;;;;;5053233;28;20389;-89
2023/07/17 00:44:03;;;;;;;1.80;1.40;;;;;;;;;;5052868;28;20381;-88
2023/07/17 00:46:30;;;;;;;2.33;1.58;;;;;;;;;;5053075;28;20381;-90
2023/07/17 00:48:56;;;;;;;2.10;1.70;;;;;;;;;;5038834;28;20380;-89
2023/07/17 00:51:22;;;;;;;2.17;1.40;;;;;;;;;;5041411;28;20505;-90
2023/07/17 00:53:48;;;;;;;1.80;1.60;;;;;;;;;;5047618;28;20389;-88
2023/07/17 00:56:14;;;;;;;2.03;1.70;;;;;;;;;;5052887;28;20409;-90
2023/07/17 00:58:40;;;;;;;1.95;1.73;;;;;;;;;;5052517;28;20384;-89
2023/07/17 01:01:06;;;;;;;3.38;1.90;;;;;;;;;;5043873;28;20415;-90
2023/07/17 01:03:33;;;;;;;2.05;1.80;;;;;;;;;;5047685;28;20387;-89
2023/07/17 01:05:59;;;;;;;2.40;1.60;;;;;;;;;;5051554;28;20398;-90
2023/07/17 01:08:25;;;;;;;3.35;1.80;;;;;;;;;;5045302;28;20407;-89
2023/07/17 01:10:51;;;;;;;4.35;1.83;;;;;;;;;;5048164;28;20460;-90
2023/07/17 01:13:19;;;;;;;2.43;1.60;;;;;;;;;;5039965;28;20475;-89
2023/07/17 01:15:45;;;;;;;2.90;1.73;;;;;;;;;;5047947;28;20394;-89
2023/07/17 01:18:11;;;;;;;2.38;1.50;;;;;;;;;;5052351;28;20381;-90
2023/07/17 01:20:37;;;;;;;2.47;1.52;;;;;;;;;;5042705;28;20479;-90
2023/07/17 01:23:04;;;;;;;2.53;1.60;;;;;;;;;;5047216;28;20385;-89
2023/07/17 01:25:30;;;;;;;2.83;1.92;;;;;;;;;;5052469;28;20378;-88
2023/07/17 01:27:56;;;;;;;2.50;1.92;;;;;;;;;;5052134;28;20746;-88
2023/07/17 01:30:22;;;;;;;2.15;1.80;;;;;;;;;;5052100;28;20389;-90
2023/07/17 01:32:48;;;;;;;3.15;2.30;;;;;;;;;;5052034;28;20869;-88
2023/07/17 01:35:14;;;;;;;3.20;2.70;;;;;;;;;;5052111;28;20385;-90
2023/07/17 01:37:42;;;;;;;3.83;2.50;;;;;;;;;;5051822;28;20889;-90
2023/07/17 01:40:09;;;;;;;4.47;2.38;;;;;;;;;;5052133;28;20428;-90
2023/07/17 01:42:35;;;;;;;3.10;2.08;;;;;;;;;;5052145;28;20381;-89
2023/07/17 01:45:01;;;;;;;2.37;2.00;;;;;;;;;;5052833;28;20382;-90
2023/07/17 01:47:27;;;;;;;2.53;2.25;;;;;;;;;;5050611;28;20389;-89
2023/07/17 01:49:53;;;;;;;2.78;2.08;;;;;;;;;;5051966;28;20443;-88
2023/07/17 01:52:19;;;;;;;3.05;2.10;;;;;;;;;;5052386;28;20385;-90
2023/07/17 01:54:45;;;;;;;2.83;2.15;;;;;;;;;;5052358;28;20419;-90
2023/07/17 01:57:11;;;;;;;3.15;2.17;;;;;;;;;;5037086;28;20893;-88
2023/07/17 01:59:37;;;;;;;3.70;2.10;;;;;;;;;;5051487;28;20389;-90
2023/07/17 02:02:03;;;;;;;4.63;2.50;;;;;;;;;;5045564;28;20742;-89
2023/07/17 02:04:29;;;;;;;3.60;2.40;;;;;;;;;;5046164;28;20392;-89
2023/07/17 02:06:55;;;;;;;3.07;1.70;;;;;;;;;;5051960;28;20424;-89
2023/07/17 02:09:21;;;;;;;2.20;1.57;;;;;;;;;;5050864;28;20385;-89
2023/07/17 02:11:47;;;;;;;2.22;1.63;;;;;;;;;;5054302;28;20385;-89
2023/07/17 02:14:12;;;;;;;2.17;1.70;;;;;;;;;;5048250;28;20404;-90
2023/07/17 02:16:38;;;;;;;2.80;1.80;;;;;;;;;;5056124;28;20416;-89
2023/07/17 02:19:04;;;;;;;3.60;2.15;;;;;;;;;;5066033;28;20459;-90
2023/07/17 02:21:30;;;;;;;4.35;2.30;;;;;;;;;;5058618;28;20778;-89
2023/07/17 02:24:00;;;;;;;3.55;2.00;;;;;;;;;;5055182;28;20381;-89
2023/07/17 02:26:26;;;;;;;2.30;1.73;;;;;;;;;;5054699;28;20378;-89
2023/07/17 02:28:52;;;;;;;3.47;1.85;;;;;;;;;;5055262;28;20381;-89
2023/07/17 02:31:18;;;;;;;2.55;1.85;;;;;;;;;;5064875;28;20384;-88
2023/07/17 02:33:44;;;;;;;2.17;1.80;;;;;;;;;;5056011;28;20389;-89
2023/07/17 02:36:10;;;;;;;3.35;2.03;;;;;;;;;;5054967;28;20909;-89
2023/07/17 02:38:36;;;;;;;2.80;1.98;;;;;;;;;;5054573;28;20427;-90
2023/07/17 02:41:02;;;;;;;3.38;1.90;;;;;;;;;;5053882;28;20393;-88
2023/07/17 02:43:28;;;;;;;3.25;1.90;;;;;;;;;;5053154;28;20392;-90
2023/07/17 02:45:54;;;;;;;2.00;1.70;;;;;;;;;;5054602;28;20430;-90
2023/07/17 02:48:20;;;;;;;2.33;1.95;;;;;;;;;;5040206;28;20458;-88
2023/07/17 02:50:50;;;;;;;3.63;1.83;;;;;;;;;;5054345;28;20855;-89
2023/07/17 02:53:16;;;;;;;2.88;2.00;;;;;;;;;;5052785;28;20424;-89
2023/07/17 02:55:42;;;;;;;2.67;1.80;;;;;;;;;;5054351;28;20855;-89
2023/07/17 02:58:08;;;;;;;4.95;2.28;;;;;;;;;;5054324;28;20414;-91
2023/07/17 03:00:35;;;;;;;2.17;1.80;;;;;;;;;;5051248;28;20386;-91
2023/07/17 03:03:01;;;;;;;4.15;2.22;;;;;;;;;;5052059;28;20446;-91
2023/07/17 03:05:26;;;;;;;3.47;2.20;;;;;;;;;;5040486;28;20384;-91
2023/07/17 03:07:54;;;;;;;2.28;1.80;;;;;;;;;;5036894;28;20448;-91
2023/07/17 03:10:21;;;;;;;2.40;2.00;;;;;;;;;;5060564;28;20378;-91
2023/07/17 03:12:47;;;;;;;2.50;1.83;;;;;;;;;;5061868;28;20413;-92
2023/07/17 03:15:13;;;;;;;3.13;1.65;;;;;;;;;;5075613;28;20387;-92
2023/07/17 03:17:39;;;;;;;3.35;2.10;;;;;;;;;;5062867;28;20421;-90
2023/07/17 03:20:09;;;;;;;3.43;2.00;;;;;;;;;;5071061;28;20392;-91
2023/07/17 03:22:35;;;;;;;2.63;2.05;;;;;;;;;;5063736;28;20384;-91
2023/07/17 03:25:02;;;;;;;4.57;2.30;;;;;;;;;;5068770;28;20374;-90
2023/07/17 03:27:28;;;;;;;2.80;2.03;;;;;;;;;;5070568;28;20426;-91
2023/07/17 03:29:53;;;;;;;2.60;1.73;;;;;;;;;;5045165;28;20392;-90
2023/07/17 03:32:19;;;;;;;2.83;2.10;;;;;;;;;;5074337;28;20422;-91
2023/07/17 03:34:45;;;;;;;2.00;1.80;;;;;;;;;;5074867;28;20485;-91
2023/07/17 03:37:12;;;;;;;2.17;1.83;;;;;;;;;;5073638;28;20404;-90
2023/07/17 03:39:38;;;;;;;3.28;1.90;;;;;;;;;;5075099;28;20390;-91
2023/07/17 03:42:10;;;;;;;5.28;2.08;;;;;;;;;;5054618;28;20470;-92
2023/07/17 03:44:36;;;;;;;2.20;1.75;;;;;;;;;;5065875;28;20364;-92
2023/07/17 03:47:02;;;;;;;2.45;1.77;;;;;;;;;;5054878;28;20874;-90
2023/07/17 03:49:28;;;;;;;2.42;1.95;;;;;;;;;;5074172;28;20387;-90
2023/07/17 03:51:53;;;;;;;3.17;1.70;;;;;;;;;;5079021;28;20463;-91
2023/07/17 03:54:19;;;;;;;2.72;1.90;;;;;;;;;;5073584;28;20383;-91
2023/07/17 03:56:45;;;;;;;2.80;1.90;;;;;;;;;;5056510;28;20411;-90
2023/07/17 03:59:11;;;;;;;2.40;1.93;;;;;;;;;;5062663;28;20395;-91
2023/07/17 04:01:37;;;;;;;3.70;2.15;;;;;;;;;;5067111;28;20394;-91
2023/07/17 04:04:04;;;;;;;1.92;1.77;;;;;;;;;;5078283;28;20513;-90
2023/07/17 04:06:30;;;;;;;3.05;1.85;;;;;;;;;;5071339;28;20470;-91
2023/07/17 04:08:56;;;;;;;2.53;1.90;;;;;;;;;;5052777;28;20476;-91
2023/07/17 04:11:22;;;;;;;3.08;2.13;;;;;;;;;;5053719;28;20377;-90
2023/07/17 04:13:48;;;;;;;2.95;1.80;;;;;;;;;;5052643;28;20386;-91
2023/07/17 04:16:16;;;;;;;3.33;2.13;;;;;;;;;;5053205;28;20938;-90
2023/07/17 04:18:42;;;;;;;2.50;1.80;;;;;;;;;;5045792;28;20415;-91
2023/07/17 04:21:08;;;;;;;2.33;1.73;;;;;;;;;;5032975;28;20398;-91
2023/07/17 04:23:34;;;;;;;2.85;1.98;;;;;;;;;;5052779;28;20938;-92
2023/07/17 04:26:00;;;;;;;2.85;2.00;;;;;;;;;;5052126;28;20432;-90
2023/07/17 04:28:26;;;;;;;2.88;1.83;;;;;;;;;;5047254;28;20889;-89
2023/07/17 04:30:52;;;;;;;2.90;1.88;;;;;;;;;;5042509;28;20373;-91
2023/07/17 04:33:18;;;;;;;2.63;2.05;;;;;;;;;;5037972;28;20386;-90
2023/07/17 04:35:44;;;;;;;3.05;1.60;;;;;;;;;;5050058;28;20369;-90
2023/07/17 04:38:10;;;;;;;3.10;1.83;;;;;;;;;;5061799;28;20476;-90
2023/07/17 04:40:36;;;;;;;3.60;1.93;;;;;;;;;;5054158;28;20377;-91
2023/07/17 04:43:02;;;;;;;2.90;1.90;;;;;;;;;;5053573;28;20390;-91
2023/07/17 04:45:28;;;;;;;2.65;2.08;;;;;;;;;;5053369;28;20897;-91
2023/07/17 04:47:54;;;;;;;3.22;2.10;;;;;;;;;;5052369;28;20910;-91
2023/07/17 04:50:22;;;;;;;4.00;2.13;;;;;;;;;;5051177;28;20381;-91
2023/07/17 04:52:48;;;;;;;4.55;2.10;;;;;;;;;;5044407;28;20442;-91
2023/07/17 04:55:14;;;;;;;2.97;2.13;;;;;;;;;;5053713;28;20397;-91
2023/07/17 04:57:40;;;;;;;3.50;2.20;;;;;;;;;;5053576;28;20416;-91
2023/07/17 05:00:09;;;;;;;3.60;2.20;;;;;;;;;;5051938;28;20409;-91
2023/07/17 05:02:35;;;;;;;2.88;1.80;;;;;;;;;;5053116;28;20373;-91
2023/07/17 05:05:01;;;;;;;3.10;2.30;;;;;;;;;;5053146;28;20388;-91
2023/07/17 05:07:27;;;;;;;3.42;1.90;;;;;;;;;;5053454;28;20421;-91
2023/07/17 05:09:53;;;;;;;3.23;2.10;;;;;;;;;;5053242;28;20468;-91
2023/07/17 05:12:19;;;;;;;2.43;2.23;;;;;;;;;;5052567;28;20384;-91
2023/07/17 05:14:45;;;;;;;4.00;2.35;;;;;;;;;;5038724;28;20905;-91
2023/07/17 05:17:11;;;;;;;3.25;2.28;;;;;;;;;;5053028;28;20471;-91
2023/07/17 05:19:37;;;;;;;2.95;2.42;;;;;;;;;;5053206;28;20431;-91
2023/07/17 05:22:03;;;;;;;3.58;2.00;;;;;;;;;;5045949;28;20391;-91
2023/07/17 05:24:29;;;;;;;4.87;2.40;;;;;;;;;;5046128;28;20403;-91
2023/07/17 05:26:55;;;;;;;3.72;2.00;;;;;;;;;;5053036;28;20809;-91
2023/07/17 05:29:21;;;;;;;4.03;2.10;;;;;;;;;;5041221;28;20379;-91
2023/07/17 05:31:47;;;;;;;4.55;2.20;;;;;;;;;;5049240;28;20411;-91
2023/07/17 05:34:13;;;;;;;4.20;2.30;;;;;;;;;;5053777;28;20396;-91
2023/07/17 05:36:39;;;;;;;3.05;1.90;;;;;;;;;;5057177;28;20415;-91
2023/07/17 05:39:05;;;;;;;2.35;1.98;;;;;;;;;;5049660;28;20394;-91
2023/07/17 05:41:32;;;;;;;3.92;2.10;;;;;;;;;;5050123;28;20850;-91
2023/07/17 05:43:58;;;;;;;4.47;2.40;;;;;;;;;;5056608;28;20385;-91
2023/07/17 05:46:25;;;;;;;5.03;2.40;;;;;;;;;;5056975;28;20881;-91
2023/07/17 05:48:51;;;;;;;3.03;1.77;;;;;;;;;;5056569;28;20388;-91
2023/07/17 05:51:17;;;;;;;3.53;2.45;;;;;;;;;;5056794;28;20385;-91
2023/07/17 05:53:43;;;;;;;4.45;2.33;;;;;;;;;;5053369;28;20394;-91
2023/07/17 05:56:09;;;;;;;3.15;2.40;;;;;;;;;;5055759;28;20381;-89
2023/07/17 05:58:35;;;;;;;2.90;2.20;;;;;;;;;;5048893;28;20371;-91
2023/07/17 06:01:01;;;;;;;3.05;2.10;;;;;;;;;;5060734;28;20406;-91
2023/07/17 06:03:27;;;;;;;3.13;2.13;;;;;;;;;;5046877;28;20379;-91
2023/07/17 06:05:53;;;;;;;4.82;2.42;;;;;;;;;;5040017;28;21714;-90
2023/07/17 06:08:19;;;;;;;2.35;2.00;;;;;;;;;;5056333;28;20497;-90
2023/07/17 06:10:46;;;;;;;3.13;2.17;;;;;;;;;;5056190;28;20516;-91
2023/07/17 06:13:12;;;;;;;3.38;2.10;;;;;;;;;;5047035;28;20419;-90
2023/07/17 06:15:39;;;;;;;3.22;2.03;;;;;;;;;;5050077;28;20381;-91
2023/07/17 06:18:05;;;;;;;3.40;2.22;;;;;;;;;;5055810;28;20436;-91
2023/07/17 06:20:31;;;;;;;3.92;2.20;;;;;;;;;;5056485;28;20374;-91
2023/07/17 06:22:57;;;;;;;3.35;2.20;;;;;;;;;;5056282;28;20384;-91
2023/07/17 06:25:23;;;;;;;3.05;1.85;;;;;;;;;;5056243;28;20431;-90
2023/07/17 06:27:49;;;;;;;2.55;2.30;;;;;;;;;;5056088;28;20783;-90
2023/07/17 06:30:15;;;;;;;4.00;2.05;;;;;;;;;;5055678;28;20393;-90
2023/07/17 06:32:41;;;;;;;4.85;2.50;;;;;;;;;;5055674;28;20389;-91
2023/07/17 06:35:07;;;;;;;3.50;2.10;;;;;;;;;;5055711;28;20424;-91
2023/07/17 06:37:33;;;;;;;2.90;2.23;;;;;;;;;;5057381;28;20417;-90
2023/07/17 06:39:59;;;;;;;4.18;2.60;;;;;;;;;;5055790;28;20457;-90
2023/07/17 06:42:25;;;;;;;3.30;2.28;;;;;;;;;;5055811;28;20373;-91
2023/07/17 06:44:51;;;;;;;3.70;2.42;;;;;;;;;;5042305;28;20852;-91
2023/07/17 06:47:17;;;;;;;3.50;2.35;;;;;;;;;;5054080;28;20393;-91
2023/07/17 06:49:43;;;;;;;2.88;2.08;;;;;;;;;;5044848;28;20863;-91
2023/07/17 06:52:09;;;;;;;3.03;2.00;;;;;;;;;;5051601;28;20403;-90
2023/07/17 06:54:35;;;;;;;2.28;2.08;;;;;;;;;;5054333;28;20401;-90
2023/07/17 06:57:01;;;;;;;2.67;2.20;;;;;;;;;;5054848;28;20441;-91
2023/07/17 06:59:28;;;;;;;2.70;2.40;;;;;;;;;;5039736;28;20385;-91
2023/07/17 07:01:54;;;;;;;3.53;2.22;;;;;;;;;;5048301;28;20373;-91
2023/07/17 07:04:21;;;;;;;2.85;2.05;;;;;;;;;;5045127;28;20424;-89
2023/07/17 07:06:47;;;;;;;4.82;2.33;;;;;;;;;;5047915;28;20442;-90
2023/07/17 07:09:13;;;;;;;3.97;2.17;;;;;;;;;;5055471;28;20897;-91
2023/07/17 07:11:39;;;;;;;4.40;2.50;;;;;;;;;;5045393;28;20383;-90
2023/07/17 07:14:05;;;;;;;3.00;2.10;;;;;;;;;;5036377;28;20418;-90
2023/07/17 07:16:31;;;;;;;3.13;2.20;;;;;;;;;;5054592;28;20827;-91
2023/07/17 07:18:57;;;;;;;3.83;2.10;;;;;;;;;;5055151;28;20378;-91
2023/07/17 07:21:23;;;;;;;3.78;2.15;;;;;;;;;;5055076;28;20412;-90
2023/07/17 07:23:49;;;;;;;5.10;2.35;;;;;;;;;;5054016;28;20803;-92
2023/07/17 07:26:15;;;;;;;3.05;2.20;;;;;;;;;;5055601;28;20519;-91
2023/07/17 07:28:41;;;;;;;3.15;2.10;;;;;;;;;;5054569;28;20404;-90
2023/07/17 07:31:07;;;;;;;3.72;2.13;;;;;;;;;;5055134;28;20427;-90
2023/07/17 07:33:33;;;;;;;6.20;2.50;;;;;;;;;;5055294;28;20863;-90
2023/07/17 07:36:00;;;;;;;4.05;2.33;;;;;;;;;;5055152;28;20381;-91
2023/07/17 07:38:26;;;;;;;4.97;2.30;;;;;;;;;;5051622;28;20826;-91
2023/07/17 07:40:52;;;;;;;2.70;2.00;;;;;;;;;;5042409;28;20889;-90
2023/07/17 07:43:18;;;;;;;3.40;2.03;;;;;;;;;;5054664;28;20394;-90
2023/07/17 07:45:44;;;;;;;2.47;1.98;;;;;;;;;;5054938;28;20415;-91
2023/07/17 07:48:10;;;;;;;4.10;2.40;;;;;;;;;;5041319;28;20829;-91
2023/07/17 07:50:36;;;;;;;4.43;2.03;;;;;;;;;;5048875;28;20421;-90
2023/07/17 07:53:02;;;;;;;4.63;2.30;;;;;;;;;;5042800;28;20461;-91
2023/07/17 07:55:28;;;;;;;4.40;2.47;;;;;;;;;;5035956;28;20452;-92
2023/07/17 07:57:54;;;;;;;3.22;2.13;;;;;;;;;;5053662;28;20962;-91
2023/07/17 08:00:20;;;;;;;4.20;2.40;;;;;;;;;;5038928;28;20399;-90
2023/07/17 08:02:46;;;;;;;4.15;2.15;;;;;;;;;;5039888;28;20377;-90
2023/07/17 08:05:12;;;;;;;2.25;1.85;;;;;;;;;;5057582;28;20387;-91
2023/07/17 08:07:38;;;;;;;4.07;2.35;;;;;;;;;;5055295;28;20466;-90
2023/07/17 08:10:04;;;;;;;3.70;2.13;;;;;;;;;;5052344;28;20420;-90
2023/07/17 08:12:31;;;;;;;3.05;2.20;;;;;;;;;;5052463;28;20976;-91
2023/07/17 08:14:57;;;;;;;3.63;2.40;;;;;;;;;;5050870;28;20394;-91
2023/07/17 08:17:23;;;;;;;3.17;2.10;;;;;;;;;;5050037;28;20410;-90
2023/07/17 08:19:49;;;;;;;3.15;2.40;;;;;;;;;;5052394;28;20390;-90
2023/07/17 08:22:15;;;;;;;2.72;2.05;;;;;;;;;;5053908;28;20461;-90
2023/07/17 08:24:41;;;;;;;3.35;2.05;;;;;;;;;;5054248;28;20385;-91
2023/07/17 08:27:07;;;;;;;3.65;2.58;;;;;;;;;;5054576;28;20398;-91
2023/07/17 08:29:33;;;;;;;2.90;2.05;;;;;;;;;;5054892;28;20385;-91
2023/07/17 08:31:59;;;;;;;2.55;1.90;;;;;;;;;;5040696;28;20404;-91
2023/07/17 08:34:25;;;;;;;3.65;2.25;;;;;;;;;;5057594;28;20390;-91
2023/07/17 08:36:51;;;;;;;3.00;1.98;;;;;;;;;;5039031;28;20888;-91
2023/07/17 08:39:17;;;;;;;9.18;3.58;;;;;;;;;;5044723;28;20379;-91
2023/07/17 08:41:46;;;;;;;2.70;2.23;;;;;;;;;;5046874;28;20893;-91
2023/07/17 08:44:13;;;;;;;3.53;2.30;;;;;;;;;;5053472;28;20428;-91
2023/07/17 08:46:39;;;;;;;3.85;2.63;;;;;;;;;;5053142;28;20385;-92
2023/07/17 08:49:06;;;;;;;4.30;2.80;;;;;;;;;;5053289;28;20378;-90
2023/07/17 08:51:32;;;;;;;5.07;3.03;;;;;;;;;;5041242;28;20379;-90
2023/07/17 08:54:00;;;;;;;4.57;2.80;;;;;;;;;;5050486;28;20382;-91
2023/07/17 08:56:27;;;;;;;3.85;2.30;;;;;;;;;;5042531;28;20423;-91
2023/07/17 08:58:54;;;;;;;4.00;2.50;;;;;;;;;;5049300;28;20435;-91
2023/07/17 09:01:20;;;;;;;4.88;2.20;;;;;;;;;;5053720;28;20939;-91
2023/07/17 09:03:48;;;;;;;3.73;2.27;;;;;;;;;;5051608;28;20756;-90
2023/07/17 09:06:14;;;;;;;3.17;2.60;;;;;;;;;;5045652;28;20387;-91
2023/07/17 09:08:40;;;;;;;3.83;2.33;;;;;;;;;;5047968;28;20408;-91
2023/07/17 09:11:08;;;;;;;4.45;2.60;;;;;;;;;;5056937;28;20468;-90
2023/07/17 09:13:40;;;;;;;3.88;2.40;;;;;;;;;;5046159;28;20383;-91
2023/07/17 09:16:16;;;;;;;4.97;2.40;;;;;;;;;;5049511;28;20821;-91
2023/07/17 09:18:42;;;;;;;3.47;2.55;;;;;;;;;;5044197;28;20377;-91
2023/07/17 09:21:11;;;;;;;4.30;2.50;;;;;;;;;;5043370;28;20475;-88
2023/07/17 09:23:38;;;;;;;4.53;3.20;;;;;;;;;;5057007;28;20464;-89
2023/07/17 09:26:04;;;;;;;5.30;4.10;;;;;;;;;;5048754;28;20382;-87
2023/07/17 09:28:30;;;;;;;6.00;4.30;;;;;;;;;;5052436;28;20416;-88
2023/07/17 09:31:02;;;;;;;5.33;3.90;;;;;;;;;;5045602;28;20377;-89
2023/07/17 09:33:29;;;;;;;3.72;2.92;;;;;;;;;;5049855;28;20476;-89
2023/07/17 09:35:56;;;;;;;3.95;2.67;;;;;;;;;;5052698;28;20473;-91
2023/07/17 09:38:28;;;;;;;4.20;3.17;;;;;;;;;;5056251;28;20454;-90
2023/07/17 09:40:54;;;;;;;4.90;2.58;;;;;;;;;;5056808;28;20377;-88
2023/07/17 09:43:29;;;;;;;3.70;2.72;;;;;;;;;;5040843;28;20457;-88
2023/07/17 09:45:58;;;;;;;6.15;3.20;;;;;;;;;;5043774;28;20388;-89
2023/07/17 09:48:26;;;;;;;4.05;2.92;;;;;;;;;;5056300;28;20551;-89
2023/07/17 09:50:52;;;;;;;4.20;2.95;;;;;;;;;;5058937;28;20432;-88
2023/07/17 09:53:19;;;;;;;3.95;2.70;;;;;;;;;;5060282;28;20421;-89
2023/07/17 09:55:48;;;;;;;3.60;2.88;;;;;;;;;;5057580;28;20385;-88
2023/07/17 09:58:16;;;;;;;2.80;2.60;;;;;;;;;;5056477;28;20421;-90
2023/07/17 10:00:42;;;;;;;4.93;3.00;;;;;;;;;;5055455;28;20402;-89
2023/07/17 10:03:09;;;;;;;3.63;2.83;;;;;;;;;;5054164;28;20392;-89
2023/07/17 10:05:36;;;;;;;4.43;3.05;;;;;;;;;;5057247;28;20474;-89
2023/07/17 10:08:10;;;;;;;3.75;2.55;;;;;;;;;;5056424;28;20405;-88
2023/07/17 10:10:36;;;;;;;4.13;2.72;;;;;;;;;;5055379;28;20393;-90
2023/07/17 10:13:02;;;;;;;5.50;2.85;;;;;;;;;;5055501;28;20373;-88
2023/07/17 10:15:29;;;;;;;6.15;2.97;;;;;;;;;;5061263;28;20383;-88
2023/07/17 10:17:58;;;;;;;3.38;2.80;;;;;;;;;;5061105;28;20470;-90
2023/07/17 10:20:24;;;;;;;7.43;2.90;;;;;;;;;;5055054;28;20867;-91
2023/07/17 10:22:50;;;;;;;3.88;2.63;;;;;;;;;;5055635;28;20456;-91
2023/07/17 10:25:19;;;;;;;4.13;2.80;;;;;;;;;;5070877;28;20374;-92
2023/07/17 10:27:47;;;;;;;3.15;2.75;;;;;;;;;;5055652;28;20480;-91
2023/07/17 10:30:33;;;;;;;4.55;3.10;;;;;;;;;;5054190;28;20386;-89
2023/07/17 10:33:02;;;;;;;4.68;2.78;;;;;;;;;;5055045;28;20731;-91
2023/07/17 10:35:31;;;;;;;4.47;2.77;;;;;;;;;;5055027;28;20381;-90
2023/07/17 10:38:10;;;;;;;3.75;2.80;;;;;;;;;;5055279;28;20444;-91
2023/07/17 10:40:36;;;;;;;2.63;2.43;;;;;;;;;;5057832;28;20878;-90
2023/07/17 10:43:12;;;;;;;4.63;2.57;;;;;;;;;;5052276;28;20778;-90
2023/07/17 10:45:38;;;;;;;2.65;2.40;;;;;;;;;;5055803;28;20377;-90
2023/07/17 10:48:06;;;;;;;3.35;2.63;;;;;;;;;;5055179;28;20878;-91
2023/07/17 10:50:32;;;;;;;3.95;2.80;;;;;;;;;;5054658;28;20385;-90
2023/07/17 10:53:05;;;;;;;3.47;2.35;;;;;;;;;;5055000;28;20453;-90
2023/07/17 10:55:32;;;;;;;3.10;2.40;;;;;;;;;;5052329;28;20439;-90
2023/07/17 10:57:58;;;;;;;3.33;2.78;;;;;;;;;;5043302;28;20405;-91
2023/07/17 11:00:24;;;;;;;4.90;3.28;;;;;;;;;;5054738;28;20731;-91
2023/07/17 11:02:50;;;;;;;3.85;2.70;;;;;;;;;;5048644;28;20418;-91
2023/07/17 11:05:16;;;;;;;3.50;3.03;;;;;;;;;;5048816;28;20407;-92
2023/07/17 11:07:42;;;;;;;7.03;4.32;;;;;;;;;;5050554;28;20429;-92
2023/07/17 11:10:12;;;;;;;11.23;7.90;;;;;;;;;;5054877;28;20896;-92
2023/07/17 11:12:42;;;;;;;5.20;3.42;;;;;;;;;;5049870;28;20465;-92
2023/07/17 11:15:15;;;;;;;7.65;4.18;;;;;;;;;;5055264;28;20387;-91
2023/07/17 11:17:41;;;;;;;5.45;3.60;;;;;;;;;;5051564;28;20403;-92
2023/07/17 11:20:07;;;;;;;5.40;3.92;;;;;;;;;;5050748;28;20431;-92
2023/07/17 11:22:33;;;;;;;3.42;2.75;;;;;;;;;;5055256;28;20464;-91
2023/07/17 11:24:59;;;;;;;3.22;2.53;;;;;;;;;;5056064;28;20404;-92
2023/07/17 11:27:26;;;;;;;4.30;2.83;;;;;;;;;;5054011;28;20488;-92
2023/07/17 11:29:52;;;;;;;3.85;2.70;;;;;;;;;;5054277;28;20443;-92
2023/07/17 11:32:19;;;;;;;3.53;2.85;;;;;;;;;;5057851;28;20499;-92
2023/07/17 11:34:46;;;;;;;4.93;4.43;;;;;;;;;;5057923;28;20390;-92
2023/07/17 11:37:29;;;;;;;10.03;3.20;;;;;;;;;;5052560;28;20932;-92
2023/07/17 11:39:55;;;;;;;4.05;2.78;;;;;;;;;;5054382;28;20417;-93
2023/07/17 11:42:21;;;;;;;3.45;2.72;;;;;;;;;;5054277;28;20386;-92
2023/07/17 11:44:58;;;;;;;3.90;2.63;;;;;;;;;;5049587;28;20384;-93
2023/07/17 11:47:25;;;;;;;8.05;3.03;;;;;;;;;;5054042;28;20385;-91
2023/07/17 11:49:53;;;;;;;5.35;3.30;;;;;;;;;;5053521;28;20488;-91
2023/07/17 11:52:19;;;;;;;3.53;3.17;;;;;;;;;;5044104;28;20423;-92
2023/07/17 11:54:58;;;;;;;4.20;2.70;;;;;;;;;;5090401;28;20347;-91
2023/07/17 11:57:30;;;;;;;6.15;2.85;;;;;;;;;;5091110;28;20383;-90
2023/07/17 12:00:10;;;;;;;4.03;2.70;;;;;;;;;;5091014;28;20363;-88
2023/07/17 12:02:36;;;;;;;3.63;2.80;;;;;;;;;;5081598;28;20371;-91
2023/07/17 12:05:02;;;;;;;3.50;2.60;;;;;;;;;;5085867;28;20373;-91
2023/07/17 12:07:28;;;;;;;3.65;2.80;;;;;;;;;;5087375;28;20386;-90
2023/07/17 12:09:54;;;;;;;3.88;2.60;;;;;;;;;;5090015;28;20371;-91
2023/07/17 12:12:20;;;;;;;3.95;2.50;;;;;;;;;;5082428;28;20373;-92
2023/07/17 12:14:46;;;;;;;3.15;2.83;;;;;;;;;;5080078;28;20415;-90
2023/07/17 12:17:12;;;;;;;3.35;2.42;;;;;;;;;;5089541;28;20424;-92
2023/07/17 12:19:38;;;;;;;2.92;2.60;;;;;;;;;;5074250;28;20766;-91
2023/07/17 12:22:04;;;;;;;3.60;2.40;;;;;;;;;;5076751;28;20848;-91
2023/07/17 12:24:30;;;;;;;2.90;2.40;;;;;;;;;;5090098;28;20744;-90
2023/07/17 12:26:56;;;;;;;2.78;2.50;;;;;;;;;;5089384;28;20383;-89
2023/07/17 12:29:23;;;;;;;3.35;2.50;;;;;;;;;;5089425;28;20411;-88
2023/07/17 12:31:49;;;;;;;4.13;2.50;;;;;;;;;;5089066;28;20411;-88
2023/07/17 12:34:15;;;;;;;3.85;2.30;;;;;;;;;;5089312;28;20419;-90
2023/07/17 12:36:41;;;;;;;2.60;2.30;;;;;;;;;;5089136;28;20367;-90
2023/07/17 12:39:14;;;;;;;3.40;2.55;;;;;;;;;;5084115;28;20420;-89
2023/07/17 12:41:40;;;;;;;2.88;2.58;;;;;;;;;;5085300;28;20492;-91
2023/07/17 12:44:06;;;;;;;3.95;2.80;;;;;;;;;;5089435;28;20375;-91
2023/07/17 12:46:32;;;;;;;2.90;2.50;;;;;;;;;;5089990;28;20379;-90
2023/07/17 12:48:58;;;;;;;4.97;3.15;;;;;;;;;;5090108;28;20431;-91
2023/07/17 12:51:24;;;;;;;3.30;2.67;;;;;;;;;;5089484;28;20474;-90
2023/07/17 12:53:51;;;;;;;3.65;2.78;;;;;;;;;;5085319;28;20421;-89
2023/07/17 12:56:17;;;;;;;3.73;2.47;;;;;;;;;;5089282;28;20375;-91
2023/07/17 12:58:43;;;;;;;3.63;2.63;;;;;;;;;;5079018;28;20390;-89
2023/07/17 13:01:09;;;;;;;2.90;2.50;;;;;;;;;;5087740;28;20469;-89
2023/07/17 13:03:35;;;;;;;3.38;2.63;;;;;;;;;;5085733;28;20432;-91
2023/07/17 13:06:01;;;;;;;3.30;3.00;;;;;;;;;;5076750;28;20372;-90
2023/07/17 13:08:27;;;;;;;3.22;2.80;;;;;;;;;;5075283;28;20865;-89
2023/07/17 13:10:53;;;;;;;4.47;2.90;;;;;;;;;;5075543;28;20470;-90
2023/07/17 13:13:19;;;;;;;3.75;2.50;;;;;;;;;;5075471;28;20498;-91
2023/07/17 13:15:45;;;;;;;3.65;2.88;;;;;;;;;;5070892;28;20375;-89
2023/07/17 13:18:10;;;;;;;3.67;2.50;;;;;;;;;;5058173;28;20455;-91
2023/07/17 13:20:36;;;;;;;4.05;2.78;;;;;;;;;;5055313;28;20388;-91
2023/07/17 13:23:02;;;;;;;3.43;2.43;;;;;;;;;;5056130;28;20850;-90
2023/07/17 13:25:28;;;;;;;4.57;2.53;;;;;;;;;;5068363;28;20482;-90
2023/07/17 13:27:54;;;;;;;2.80;2.40;;;;;;;;;;5055364;28;20392;-89
2023/07/17 13:30:20;;;;;;;6.68;2.78;;;;;;;;;;5055155;28;20369;-89
2023/07/17 13:32:46;;;;;;;37.63;4.13;;;;;;;;;;5054953;28;20428;-92
2023/07/17 13:35:12;;;;;;;10.55;2.50;;;;;;;;;;5054733;28;20392;-89
2023/07/17 13:37:38;;;;;;;4.68;2.42;;;;;;;;;;5055108;28;20431;-90
2023/07/17 13:40:04;;;;;;;3.15;2.10;;;;;;;;;;5067708;28;20877;-92
2023/07/17 13:42:30;;;;;;;24.08;3.35;;;;;;;;;;5055173;28;20823;-91
2023/07/17 13:44:59;;;;;;;7.45;2.45;;;;;;;;;;5055110;28;20436;-91
2023/07/17 13:47:26;;;;;;;4.07;2.47;;;;;;;;;;5059530;28;20388;-91
2023/07/17 13:49:52;;;;;;;3.95;2.28;;;;;;;;;;5075101;28;20415;-91
2023/07/17 13:52:18;;;;;;;3.35;2.58;;;;;;;;;;5056831;28;20416;-91
2023/07/17 13:54:44;;;;;;;4.93;2.38;;;;;;;;;;5057085;28;20445;-91
2023/07/17 13:57:10;;;;;;;4.93;2.53;;;;;;;;;;5055219;28;20400;-90
2023/07/17 13:59:36;;;;;;;6.50;2.40;;;;;;;;;;5055196;28;20403;-90
2023/07/17 14:02:02;;;;;;;2.40;2.20;;;;;;;;;;5061902;28;20902;-90
2023/07/17 14:04:28;;;;;;;5.55;2.70;;;;;;;;;;5062976;28;20441;-90
2023/07/17 14:06:54;;;;;;;3.45;2.28;;;;;;;;;;5070027;28;20400;-89
2023/07/17 14:09:20;;;;;;;3.03;2.20;;;;;;;;;;5060251;28;20383;-91
2023/07/17 14:11:47;;;;;;;2.35;2.05;;;;;;;;;;5067104;28;20567;-92
2023/07/17 14:14:13;;;;;;;2.25;2.08;;;;;;;;;;5060917;28;20410;-91
2023/07/17 14:16:39;;;;;;;2.22;1.95;;;;;;;;;;5073297;28;20840;-92
2023/07/17 14:19:05;;;;;;;4.65;2.50;;;;;;;;;;5067497;28;20380;-92
2023/07/17 14:21:32;;;;;;;5.03;2.22;;;;;;;;;;5071220;28;20459;-91
2023/07/17 14:23:58;;;;;;;2.53;2.30;;;;;;;;;;5074784;28;20411;-90
2023/07/17 14:26:24;;;;;;;2.67;2.03;;;;;;;;;;5074746;28;20907;-91
2023/07/17 14:28:50;;;;;;;3.17;2.40;;;;;;;;;;5065239;28;20468;-90
2023/07/17 14:31:16;;;;;;;2.85;2.17;;;;;;;;;;5067424;28;20463;-90
2023/07/17 14:33:42;;;;;;;4.72;2.33;;;;;;;;;;5070779;28;20463;-92
2023/07/17 14:36:08;;;;;;;143.85;26.17;;;;;;;;;;5070667;28;20375;-91
2023/07/17 14:38:36;;;;;;;69.18;15.40;;;;;;;;;;5074864;28;20380;-92
2023/07/17 14:41:02;;;;;;;36.35;8.45;;;;;;;;;;5072234;28;20372;-91